sensor_id;sensor_type;location;lat;lon;timestamp;pressure;altitude;pressure_sealevel;temperature;humidity
26563;BME280;14217;50.986;5.826;2023-05-22T00:01:54;100831.97;;;24.14;43.13
26563;BME280;14217;50.986;5.826;2023-05-22T00:06:57;100816.75;;;24.15;43.10
26563;BME280;14217;50.986;5.826;2023-05-22T00:12:01;100815.91;;;24.14;42.93
26563;BME280;14217;50.986;5.826;2023-05-22T00:17:05;100822.22;;;24.13;43.29
26563;BME280;14217;50.986;5.826;2023-05-22T00:22:09;100811.63;;;24.12;42.93
26563;BME280;14217;50.986;5.826;2023-05-22T00:27:12;100809.81;;;24.12;43.28
26563;BME280;14217;50.986;5.826;2023-05-22T00:32:14;100813.41;;;24.11;43.16
26563;BME280;14217;50.986;5.826;2023-05-22T00:37:17;100806.16;;;24.13;43.15
26563;BME280;14217;50.986;5.826;2023-05-22T00:42:21;100801.78;;;24.12;43.14
26563;BME280;14217;50.986;5.826;2023-05-22T00:47:23;100800.78;;;24.13;43.12
26563;BME280;14217;50.986;5.826;2023-05-22T00:52:28;100794.50;;;24.14;43.12
26563;BME280;14217;50.986;5.826;2023-05-22T00:57:31;100804.34;;;24.14;43.22
26563;BME280;14217;50.986;5.826;2023-05-22T01:02:34;100798.13;;;24.13;43.08
26563;BME280;14217;50.986;5.826;2023-05-22T01:07:38;100800.59;;;24.17;42.78
26563;BME280;14217;50.986;5.826;2023-05-22T01:12:47;100804.34;;;24.14;43.20
26563;BME280;14217;50.986;5.826;2023-05-22T01:18:04;100803.28;;;24.17;42.94
26563;BME280;14217;50.986;5.826;2023-05-22T01:28:55;100799.94;;;24.13;43.31
26563;BME280;14217;50.986;5.826;2023-05-22T01:34:09;100794.59;;;24.13;43.13
26563;BME280;14217;50.986;5.826;2023-05-22T01:39:16;100790.84;;;24.15;42.91
26563;BME280;14217;50.986;5.826;2023-05-22T01:44:19;100800.78;;;24.13;43.09
26563;BME280;14217;50.986;5.826;2023-05-22T01:49:22;100796.19;;;24.15;43.15
26563;BME280;14217;50.986;5.826;2023-05-22T01:54:48;100801.88;;;24.11;43.17
26563;BME280;14217;50.986;5.826;2023-05-22T02:00:11;100801.53;;;24.15;43.07
26563;BME280;14217;50.986;5.826;2023-05-22T02:05:19;100801.66;;;24.14;42.85
26563;BME280;14217;50.986;5.826;2023-05-22T02:10:30;100807.13;;;24.12;43.35
26563;BME280;14217;50.986;5.826;2023-05-22T02:15:34;100806.03;;;24.15;42.92
26563;BME280;14217;50.986;5.826;2023-05-22T02:20:36;100803.47;;;24.13;42.88
26563;BME280;14217;50.986;5.826;2023-05-22T02:25:39;100807.22;;;24.11;42.97
26563;BME280;14217;50.986;5.826;2023-05-22T02:30:41;100807.13;;;24.12;43.23
26563;BME280;14217;50.986;5.826;2023-05-22T02:35:46;100802.72;;;24.11;43.37
26563;BME280;14217;50.986;5.826;2023-05-22T02:40:48;100808.72;;;24.15;43.11
26563;BME280;14217;50.986;5.826;2023-05-22T02:45:50;100805.19;;;24.14;42.99
26563;BME280;14217;50.986;5.826;2023-05-22T02:50:53;100802.41;;;24.16;42.90
26563;BME280;14217;50.986;5.826;2023-05-22T02:55:56;100791.81;;;24.14;43.15
26563;BME280;14217;50.986;5.826;2023-05-22T03:01:00;100789.31;;;24.11;43.03
26563;BME280;14217;50.986;5.826;2023-05-22T03:06:04;100789.13;;;24.14;42.99
26563;BME280;14217;50.986;5.826;2023-05-22T03:11:07;100792.88;;;24.12;43.25
26563;BME280;14217;50.986;5.826;2023-05-22T03:16:09;100783.97;;;24.11;42.93
26563;BME280;14217;50.986;5.826;2023-05-22T03:21:11;100777.78;;;24.11;42.88
26563;BME280;14217;50.986;5.826;2023-05-22T03:26:20;100782.19;;;24.12;43.00
26563;BME280;14217;50.986;5.826;2023-05-22T03:31:23;100783.97;;;24.11;43.27
26563;BME280;14217;50.986;5.826;2023-05-22T03:36:31;100785.72;;;24.12;43.20
26563;BME280;14217;50.986;5.826;2023-05-22T03:41:36;100783.13;;;24.11;43.08
26563;BME280;14217;50.986;5.826;2023-05-22T03:46:39;100790.31;;;24.10;43.03
26563;BME280;14217;50.986;5.826;2023-05-22T03:51:41;100780.53;;;24.09;43.09
26563;BME280;14217;50.986;5.826;2023-05-22T03:56:43;100788.56;;;24.09;42.83
26563;BME280;14217;50.986;5.826;2023-05-22T04:01:46;100787.41;;;24.13;43.10
26563;BME280;14217;50.986;5.826;2023-05-22T04:06:49;100795.56;;;24.12;42.94
26563;BME280;14217;50.986;5.826;2023-05-22T04:11:53;100795.34;;;24.15;43.08
26563;BME280;14217;50.986;5.826;2023-05-22T04:16:56;100797.50;;;24.10;42.92
26563;BME280;14217;50.986;5.826;2023-05-22T04:21:59;100792.22;;;24.08;43.01
26563;BME280;14217;50.986;5.826;2023-05-22T04:27:06;100809.91;;;24.11;42.97
26563;BME280;14217;50.986;5.826;2023-05-22T04:32:08;100809.91;;;24.11;42.96
26563;BME280;14217;50.986;5.826;2023-05-22T04:37:11;100809.16;;;24.09;43.06
26563;BME280;14217;50.986;5.826;2023-05-22T04:42:15;100808.94;;;24.12;42.89
26563;BME280;14217;50.986;5.826;2023-05-22T04:47:18;100816.09;;;24.11;42.93
26563;BME280;14217;50.986;5.826;2023-05-22T04:52:20;100816.09;;;24.11;42.92
26563;BME280;14217;50.986;5.826;2023-05-22T04:57:22;100810.75;;;24.11;42.66
26563;BME280;14217;50.986;5.826;2023-05-22T05:02:26;100813.41;;;24.11;43.03
26563;BME280;14217;50.986;5.826;2023-05-22T05:07:30;100817.84;;;24.12;42.93
26563;BME280;14217;50.986;5.826;2023-05-22T05:12:33;100807.22;;;24.11;42.98
26563;BME280;14217;50.986;5.826;2023-05-22T05:17:35;100810.22;;;24.06;44.35
26563;BME280;14217;50.986;5.826;2023-05-22T05:22:41;100818.91;;;24.10;45.04
26563;BME280;14217;50.986;5.826;2023-05-22T05:27:54;100824.25;;;24.10;44.89
26563;BME280;14217;50.986;5.826;2023-05-22T05:32:58;100827.13;;;24.07;44.88
26563;BME280;14217;50.986;5.826;2023-05-22T05:38:00;100835.06;;;24.08;45.81
26563;BME280;14217;50.986;5.826;2023-05-22T05:43:03;100840.94;;;24.13;45.40
26563;BME280;14217;50.986;5.826;2023-05-22T05:48:09;100834.75;;;24.13;45.17
26563;BME280;14217;50.986;5.826;2023-05-22T05:53:13;100837.22;;;24.16;44.77
26563;BME280;14217;50.986;5.826;2023-05-22T05:58:17;100840.75;;;24.17;44.76
26563;BME280;14217;50.986;5.826;2023-05-22T06:03:19;100844.38;;;24.15;44.62
26563;BME280;14217;50.986;5.826;2023-05-22T06:08:22;100846.09;;;24.17;44.56
26563;BME280;14217;50.986;5.826;2023-05-22T06:13:31;100844.50;;;24.14;44.54
26563;BME280;14217;50.986;5.826;2023-05-22T06:18:33;100852.06;;;24.07;45.74
26563;BME280;14217;50.986;5.826;2023-05-22T06:23:38;100855.22;;;24.14;45.52
26563;BME280;14217;50.986;5.826;2023-05-22T06:28:44;100855.97;;;24.16;45.44
26563;BME280;14217;50.986;5.826;2023-05-22T06:33:47;100866.78;;;24.14;45.25
26563;BME280;14217;50.986;5.826;2023-05-22T06:38:50;100862.16;;;24.17;45.00
26563;BME280;14217;50.986;5.826;2023-05-22T06:43:53;100877.38;;;24.16;45.04
26563;BME280;14217;50.986;5.826;2023-05-22T06:49:02;100880.16;;;24.14;44.65
26563;BME280;14217;50.986;5.826;2023-05-22T06:54:07;100881.00;;;24.15;44.50
26563;BME280;14217;50.986;5.826;2023-05-22T06:59:10;100894.47;;;24.13;44.51
26563;BME280;14217;50.986;5.826;2023-05-22T07:04:18;100898.88;;;24.14;44.49
26563;BME280;14217;50.986;5.826;2023-05-22T07:09:20;100912.28;;;24.14;44.26
26563;BME280;14217;50.986;5.826;2023-05-22T07:14:23;100921.06;;;24.17;44.16
26563;BME280;14217;50.986;5.826;2023-05-22T07:19:27;100908.75;;;24.14;43.95
26563;BME280;14217;50.986;5.826;2023-05-22T07:24:31;100914.97;;;24.14;43.99
26563;BME280;14217;50.986;5.826;2023-05-22T07:29:34;100923.84;;;24.15;43.93
26563;BME280;14217;50.986;5.826;2023-05-22T07:34:42;100922.88;;;24.16;43.96
26563;BME280;14217;50.986;5.826;2023-05-22T07:39:49;100927.50;;;24.14;43.74
26563;BME280;14217;50.986;5.826;2023-05-22T07:44:51;100924.69;;;24.15;43.78
26563;BME280;14217;50.986;5.826;2023-05-22T07:49:56;100929.28;;;24.13;43.56
26563;BME280;14217;50.986;5.826;2023-05-22T07:54:59;100932.72;;;24.15;43.45
26563;BME280;14217;50.986;5.826;2023-05-22T08:00:09;100934.53;;;24.15;43.55
26563;BME280;14217;50.986;5.826;2023-05-22T08:05:14;100930.69;;;24.19;43.41
26563;BME280;14217;50.986;5.826;2023-05-22T08:10:20;100938.06;;;24.15;43.34
26563;BME280;14217;50.986;5.826;2023-05-22T08:15:25;100935.31;;;24.17;43.11
26563;BME280;14217;50.986;5.826;2023-05-22T08:20:28;100942.56;;;24.15;43.10
26563;BME280;14217;50.986;5.826;2023-05-22T08:25:33;100936.69;;;24.10;43.96
26563;BME280;14217;50.986;5.826;2023-05-22T08:30:35;100941.28;;;24.08;44.56
26563;BME280;14217;50.986;5.826;2023-05-22T08:35:38;100940.13;;;24.12;44.42
26563;BME280;14217;50.986;5.826;2023-05-22T08:40:41;100938.38;;;24.11;44.48
26563;BME280;14217;50.986;5.826;2023-05-22T08:45:59;100938.38;;;24.11;44.60
26563;BME280;14217;50.986;5.826;2023-05-22T08:51:04;100934.00;;;24.10;44.61
26563;BME280;14217;50.986;5.826;2023-05-22T08:56:09;100936.47;;;24.13;44.51
26563;BME280;14217;50.986;5.826;2023-05-22T09:01:18;100935.31;;;24.17;44.65
26563;BME280;14217;50.986;5.826;2023-05-22T09:06:21;100938.97;;;24.16;44.82
26563;BME280;14217;50.986;5.826;2023-05-22T09:11:30;100938.19;;;24.14;44.81
26563;BME280;14217;50.986;5.826;2023-05-22T09:16:45;100934.63;;;24.13;44.61
26563;BME280;14217;50.986;5.826;2023-05-22T09:21:52;100934.53;;;24.15;44.44
26563;BME280;14217;50.986;5.826;2023-05-22T09:27:05;100936.38;;;24.14;44.45
26563;BME280;14217;50.986;5.826;2023-05-22T09:32:12;100923.94;;;24.13;44.48
26563;BME280;14217;50.986;5.826;2023-05-22T09:37:17;100935.53;;;24.14;44.26
26563;BME280;14217;50.986;5.826;2023-05-22T09:42:23;100936.88;;;24.07;45.92
26563;BME280;14217;50.986;5.826;2023-05-22T09:47:25;100930.03;;;24.15;46.57
26563;BME280;14217;50.986;5.826;2023-05-22T09:52:34;100937.63;;;24.09;46.96
26563;BME280;14217;50.986;5.826;2023-05-22T09:57:44;100939.81;;;24.17;46.33
26563;BME280;14217;50.986;5.826;2023-05-22T10:03:00;100946.97;;;24.16;46.44
26563;BME280;14217;50.986;5.826;2023-05-22T10:08:10;100945.06;;;24.18;46.04
26563;BME280;14217;50.986;5.826;2023-05-22T10:13:18;100942.06;;;24.23;45.86
26563;BME280;14217;50.986;5.826;2023-05-22T10:18:23;100949.44;;;24.19;45.83
26563;BME280;14217;50.986;5.826;2023-05-22T10:23:32;100940.31;;;24.09;46.23
26563;BME280;14217;50.986;5.826;2023-05-22T10:28:41;100944.09;;;24.19;46.33
26563;BME280;14217;50.986;5.826;2023-05-22T10:33:50;100941.41;;;24.19;45.71
26563;BME280;14217;50.986;5.826;2023-05-22T10:39:12;100934.44;;;24.17;45.99
26563;BME280;14217;50.986;5.826;2023-05-22T10:44:17;100933.59;;;24.16;45.90
26563;BME280;14217;50.986;5.826;2023-05-22T10:49:22;100936.28;;;24.16;45.81
26563;BME280;14217;50.986;5.826;2023-05-22T10:54:44;100930.25;;;24.12;45.83
26563;BME280;14217;50.986;5.826;2023-05-22T11:00:05;100925.56;;;24.16;45.93
26563;BME280;14217;50.986;5.826;2023-05-22T11:10:26;100923.00;;;24.14;45.90
26563;BME280;14217;50.986;5.826;2023-05-22T11:15:29;100926.72;;;24.12;45.83
26563;BME280;14217;50.986;5.826;2023-05-22T11:20:36;100924.06;;;24.12;45.89
26563;BME280;14217;50.986;5.826;2023-05-22T11:25:41;100922.00;;;24.15;45.72
26563;BME280;14217;50.986;5.826;2023-05-22T11:30:44;100925.56;;;24.16;46.24
26563;BME280;14217;50.986;5.826;2023-05-22T11:35:48;100924.91;;;24.12;46.24
26563;BME280;14217;50.986;5.826;2023-05-22T11:40:56;100915.81;;;24.15;46.15
26563;BME280;14217;50.986;5.826;2023-05-22T11:46:09;100914.97;;;24.14;45.91
26563;BME280;14217;50.986;5.826;2023-05-22T11:51:19;100916.34;;;24.20;45.75
26563;BME280;14217;50.986;5.826;2023-05-22T11:56:22;100913.66;;;24.20;45.87
26563;BME280;14217;50.986;5.826;2023-05-22T12:01:25;100914.41;;;24.22;45.76
26563;BME280;14217;50.986;5.826;2023-05-22T12:06:29;100912.72;;;24.21;45.83
26563;BME280;14217;50.986;5.826;2023-05-22T12:11:38;100912.50;;;24.24;45.37
26563;BME280;14217;50.986;5.826;2023-05-22T12:16:42;100905.53;;;24.22;45.11
26563;BME280;14217;50.986;5.826;2023-05-22T12:21:54;100917.00;;;24.24;45.10
26563;BME280;14217;50.986;5.826;2023-05-22T12:27:00;100910.56;;;24.26;45.34
26563;BME280;14217;50.986;5.826;2023-05-22T12:32:09;100900.75;;;24.27;46.00
26563;BME280;14217;50.986;5.826;2023-05-22T12:37:20;100897.94;;;24.28;45.60
26563;BME280;14217;50.986;5.826;2023-05-22T12:42:23;100902.66;;;24.25;45.70
26563;BME280;14217;50.986;5.826;2023-05-22T12:47:25;100902.53;;;24.26;45.57
26563;BME280;14217;50.986;5.826;2023-05-22T12:52:31;100903.19;;;24.30;45.23
26563;BME280;14217;50.986;5.826;2023-05-22T12:57:38;100901.50;;;24.29;45.07
26563;BME280;14217;50.986;5.826;2023-05-22T13:02:42;100895.38;;;24.27;45.05
26563;BME280;14217;50.986;5.826;2023-05-22T13:07:44;100896.13;;;24.29;44.77
26563;BME280;14217;50.986;5.826;2023-05-22T13:12:51;100898.06;;;24.27;44.93
26563;BME280;14217;50.986;5.826;2023-05-22T13:17:54;100887.22;;;24.28;44.65
26563;BME280;14217;50.986;5.826;2023-05-22T13:22:57;100888.09;;;24.29;44.89
26563;BME280;14217;50.986;5.826;2023-05-22T13:28:00;100885.22;;;24.32;44.70
26563;BME280;14217;50.986;5.826;2023-05-22T13:33:05;100884.34;;;24.31;44.60
26563;BME280;14217;50.986;5.826;2023-05-22T13:38:09;100881.59;;;24.33;44.71
26563;BME280;14217;50.986;5.826;2023-05-22T13:43:18;100887.13;;;24.30;44.26
26563;BME280;14217;50.986;5.826;2023-05-22T13:48:22;100888.72;;;24.32;44.22
26563;BME280;14217;50.986;5.826;2023-05-22T13:53:24;100885.13;;;24.33;44.26
26563;BME280;14217;50.986;5.826;2023-05-22T13:58:28;100877.94;;;24.34;44.26
26563;BME280;14217;50.986;5.826;2023-05-22T14:03:32;100883.38;;;24.32;44.41
26563;BME280;14217;50.986;5.826;2023-05-22T14:08:35;100889.81;;;24.30;44.13
26563;BME280;14217;50.986;5.826;2023-05-22T14:13:41;100888.44;;;24.37;43.93
26563;BME280;14217;50.986;5.826;2023-05-22T14:18:51;100886.94;;;24.33;44.09
26563;BME280;14217;50.986;5.826;2023-05-22T14:23:57;100887.03;;;24.31;45.63
26563;BME280;14217;50.986;5.826;2023-05-22T14:29:01;100884.38;;;24.44;46.29
26563;BME280;14217;50.986;5.826;2023-05-22T14:34:09;100881.88;;;24.28;48.31
26563;BME280;14217;50.986;5.826;2023-05-22T14:39:14;100878.78;;;24.47;48.06
26563;BME280;14217;50.986;5.826;2023-05-22T14:44:28;100879.81;;;24.59;48.12
26563;BME280;14217;50.986;5.826;2023-05-22T14:49:42;100880.66;;;24.60;48.23
26563;BME280;14217;50.986;5.826;2023-05-22T14:54:47;100882.16;;;24.64;48.44
26563;BME280;14217;50.986;5.826;2023-05-22T14:59:51;100873.47;;;24.60;48.54
26563;BME280;14217;50.986;5.826;2023-05-22T15:04:56;100874.88;;;24.66;48.81
26563;BME280;14217;50.986;5.826;2023-05-22T15:10:08;100872.09;;;24.67;48.71
26563;BME280;14217;50.986;5.826;2023-05-22T15:15:19;100866.31;;;24.73;48.25
26563;BME280;14217;50.986;5.826;2023-05-22T15:20:29;100867.69;;;24.53;49.17
26563;BME280;14217;50.986;5.826;2023-05-22T15:25:32;100860.72;;;24.64;48.68
26563;BME280;14217;50.986;5.826;2023-05-22T15:30:39;100867.25;;;24.60;48.95
26563;BME280;14217;50.986;5.826;2023-05-22T15:35:45;100866.94;;;24.64;48.87
26563;BME280;14217;50.986;5.826;2023-05-22T15:40:50;100872.75;;;24.71;48.68
26563;BME280;14217;50.986;5.826;2023-05-22T15:45:54;100858.88;;;24.77;48.49
26563;BME280;14217;50.986;5.826;2023-05-22T15:50:57;100851.81;;;24.76;48.72
26563;BME280;14217;50.986;5.826;2023-05-22T15:56:00;100851.06;;;24.74;48.46
26563;BME280;14217;50.986;5.826;2023-05-22T16:01:05;100850.84;;;24.77;48.52
26563;BME280;14217;50.986;5.826;2023-05-22T16:06:08;100854.94;;;24.57;49.89
26563;BME280;14217;50.986;5.826;2023-05-22T16:11:11;100860.06;;;24.60;48.60
26563;BME280;14217;50.986;5.826;2023-05-22T16:16:13;100862.66;;;24.62;48.87
26563;BME280;14217;50.986;5.826;2023-05-22T16:21:18;100864.16;;;24.66;48.27
26563;BME280;14217;50.986;5.826;2023-05-22T16:26:21;100867.81;;;24.65;48.45
26563;BME280;14217;50.986;5.826;2023-05-22T16:31:26;100873.38;;;24.62;48.39
26563;BME280;14217;50.986;5.826;2023-05-22T16:36:30;100875.41;;;24.71;48.17
26563;BME280;14217;50.986;5.826;2023-05-22T16:41:36;100879.38;;;24.65;48.85
26563;BME280;14217;50.986;5.826;2023-05-22T16:46:39;100879.47;;;24.64;48.57
26563;BME280;14217;50.986;5.826;2023-05-22T16:51:42;100886.56;;;24.65;48.50
26563;BME280;14217;50.986;5.826;2023-05-22T16:56:46;100884.84;;;24.64;48.47
26563;BME280;14217;50.986;5.826;2023-05-22T17:01:50;100888.50;;;24.63;48.50
26563;BME280;14217;50.986;5.826;2023-05-22T17:06:54;100893.94;;;24.61;48.44
26563;BME280;14217;50.986;5.826;2023-05-22T17:11:57;100891.47;;;24.58;48.74
26563;BME280;14217;50.986;5.826;2023-05-22T17:17:14;100899.22;;;24.63;48.82
26563;BME280;14217;50.986;5.826;2023-05-22T17:22:17;100886.66;;;24.63;48.48
26563;BME280;14217;50.986;5.826;2023-05-22T17:27:21;100894.47;;;24.66;48.90
26563;BME280;14217;50.986;5.826;2023-05-22T17:32:36;100894.25;;;24.82;49.04
26563;BME280;14217;50.986;5.826;2023-05-22T17:37:38;100901.22;;;24.59;50.07
26563;BME280;14217;50.986;5.826;2023-05-22T17:42:40;100901.88;;;24.63;49.37
26563;BME280;14217;50.986;5.826;2023-05-22T17:47:42;100905.50;;;24.62;49.18
26563;BME280;14217;50.986;5.826;2023-05-22T17:52:44;100916.03;;;24.52;49.59
26563;BME280;14217;50.986;5.826;2023-05-22T17:57:46;100914.94;;;24.54;49.41
26563;BME280;14217;50.986;5.826;2023-05-22T18:02:50;100921.38;;;24.52;49.12
26563;BME280;14217;50.986;5.826;2023-05-22T18:07:53;100931.22;;;24.51;49.17
26563;BME280;14217;50.986;5.826;2023-05-22T18:13:02;100937.31;;;24.53;49.06
26563;BME280;14217;50.986;5.826;2023-05-22T18:18:09;100947.63;;;24.60;48.95
26563;BME280;14217;50.986;5.826;2023-05-22T18:23:15;100949.56;;;24.58;49.21
26563;BME280;14217;50.986;5.826;2023-05-22T18:28:19;100950.31;;;24.60;49.61
26563;BME280;14217;50.986;5.826;2023-05-22T18:33:26;100949.56;;;24.58;49.34
26563;BME280;14217;50.986;5.826;2023-05-22T18:38:28;100955.00;;;24.56;49.07
26563;BME280;14217;50.986;5.826;2023-05-22T18:43:31;100956.06;;;24.53;48.95
26563;BME280;14217;50.986;5.826;2023-05-22T18:48:34;100962.88;;;24.45;50.29
26563;BME280;14217;50.986;5.826;2023-05-22T18:53:36;100963.94;;;24.69;49.38
26563;BME280;14217;50.986;5.826;2023-05-22T18:58:44;100972.50;;;24.62;49.71
26563;BME280;14217;50.986;5.826;2023-05-22T19:03:47;100986.09;;;24.59;50.11
26563;BME280;14217;50.986;5.826;2023-05-22T19:08:51;100984.38;;;24.58;49.58
26563;BME280;14217;50.986;5.826;2023-05-22T19:13:55;100989.72;;;24.58;49.28
26563;BME280;14217;50.986;5.826;2023-05-22T19:19:01;100995.31;;;24.54;49.43
26563;BME280;14217;50.986;5.826;2023-05-22T19:24:06;101003.34;;;24.54;48.92
26563;BME280;14217;50.986;5.826;2023-05-22T19:29:15;101001.19;;;24.60;48.80
26563;BME280;14217;50.986;5.826;2023-05-22T19:34:22;101008.38;;;24.59;48.79
26563;BME280;14217;50.986;5.826;2023-05-22T19:39:25;101009.06;;;24.63;48.42
26563;BME280;14217;50.986;5.826;2023-05-22T19:44:27;101013.75;;;24.59;48.32
26563;BME280;14217;50.986;5.826;2023-05-22T19:49:35;101026.06;;;24.62;48.03
26563;BME280;14217;50.986;5.826;2023-05-22T19:54:39;101027.91;;;24.61;47.89
26563;BME280;14217;50.986;5.826;2023-05-22T19:59:42;101030.91;;;24.57;47.75
26563;BME280;14217;50.986;5.826;2023-05-22T20:04:44;101042.38;;;24.59;47.77
26563;BME280;14217;50.986;5.826;2023-05-22T20:09:49;101043.13;;;24.61;47.28
26563;BME280;14217;50.986;5.826;2023-05-22T20:14:52;101043.91;;;24.75;47.54
26563;BME280;14217;50.986;5.826;2023-05-22T20:19:55;101046.03;;;24.70;47.63
26563;BME280;14217;50.986;5.826;2023-05-22T20:25:01;101058.22;;;24.62;47.84
26563;BME280;14217;50.986;5.826;2023-05-22T20:30:06;101061.31;;;24.55;47.76
26563;BME280;14217;50.986;5.826;2023-05-22T20:35:12;101069.47;;;24.54;47.33
26563;BME280;14217;50.986;5.826;2023-05-22T20:40:14;101075.19;;;24.48;47.59
26563;BME280;14217;50.986;5.826;2023-05-22T20:45:19;101080.06;;;24.55;47.28
26563;BME280;14217;50.986;5.826;2023-05-22T20:50:21;101081.88;;;24.55;47.25
26563;BME280;14217;50.986;5.826;2023-05-22T20:55:23;101080.81;;;24.58;47.04
26563;BME280;14217;50.986;5.826;2023-05-22T21:00:26;101080.91;;;24.56;47.33
26563;BME280;14217;50.986;5.826;2023-05-22T21:05:29;101075.56;;;24.56;47.07
26563;BME280;14217;50.986;5.826;2023-05-22T21:10:31;101093.44;;;24.55;46.97
26563;BME280;14217;50.986;5.826;2023-05-22T21:15:37;101093.91;;;24.62;46.81
26563;BME280;14217;50.986;5.826;2023-05-22T21:20:39;101089.41;;;24.63;46.53
26563;BME280;14217;50.986;5.826;2023-05-22T21:25:43;101084.25;;;24.60;46.69
26563;BME280;14217;50.986;5.826;2023-05-22T21:30:45;101092.28;;;24.60;46.39
26563;BME280;14217;50.986;5.826;2023-05-22T21:35:48;101095.19;;;24.57;46.41
26563;BME280;14217;50.986;5.826;2023-05-22T21:40:52;101103.22;;;24.57;46.21
26563;BME280;14217;50.986;5.826;2023-05-22T21:45:55;101112.97;;;24.58;46.25
26563;BME280;14217;50.986;5.826;2023-05-22T21:50:57;101116.63;;;24.57;46.36
26563;BME280;14217;50.986;5.826;2023-05-22T21:56:03;101116.63;;;24.57;46.17
26563;BME280;14217;50.986;5.826;2023-05-22T22:01:05;101121.75;;;24.60;46.27
26563;BME280;14217;50.986;5.826;2023-05-22T22:06:09;101126.34;;;24.58;46.03
26563;BME280;14217;50.986;5.826;2023-05-22T22:11:12;101120.16;;;24.57;46.11
26563;BME280;14217;50.986;5.826;2023-05-22T22:16:18;101126.25;;;24.59;45.86
26563;BME280;14217;50.986;5.826;2023-05-22T22:21:25;101135.16;;;24.60;45.68
26563;BME280;14217;50.986;5.826;2023-05-22T22:26:27;101135.47;;;24.55;45.86
26563;BME280;14217;50.986;5.826;2023-05-22T22:31:31;101146.09;;;24.57;45.75
26563;BME280;14217;50.986;5.826;2023-05-22T22:36:33;101153.16;;;24.58;45.74
26563;BME280;14217;50.986;5.826;2023-05-22T22:41:36;101148.00;;;24.54;45.70
26563;BME280;14217;50.986;5.826;2023-05-22T22:46:38;101155.81;;;24.58;45.65
26563;BME280;14217;50.986;5.826;2023-05-22T22:51:43;101162.72;;;24.62;45.65
26563;BME280;14217;50.986;5.826;2023-05-22T22:56:50;101174.41;;;24.61;45.50
26563;BME280;14217;50.986;5.826;2023-05-22T23:01:54;101168.47;;;24.55;45.83
26563;BME280;14217;50.986;5.826;2023-05-22T23:06:56;101184.13;;;24.62;45.27
26563;BME280;14217;50.986;5.826;2023-05-22T23:11:59;101194.31;;;24.57;45.25
26563;BME280;14217;50.986;5.826;2023-05-22T23:17:01;101192.47;;;24.57;45.57
26563;BME280;14217;50.986;5.826;2023-05-22T23:22:08;101203.00;;;24.60;45.43
26563;BME280;14217;50.986;5.826;2023-05-22T23:27:13;101195.06;;;24.59;45.42
26563;BME280;14217;50.986;5.826;2023-05-22T23:32:20;101187.78;;;24.61;45.38
26563;BME280;14217;50.986;5.826;2023-05-22T23:37:22;101204.06;;;24.58;45.20
26563;BME280;14217;50.986;5.826;2023-05-22T23:42:26;101196.09;;;24.56;45.41
26563;BME280;14217;50.986;5.826;2023-05-22T23:47:28;101197.84;;;24.57;45.21
26563;BME280;14217;50.986;5.826;2023-05-22T23:52:33;101199.66;;;24.57;45.31
26563;BME280;14217;50.986;5.826;2023-05-22T23:57:36;101203.09;;;24.59;45.23
